^^
Saratoga-Weather Station Historical Data
Daily Summary for June 26, 2020 Units:  Both    English   Metric
Daily Weekly Monthly Yearly Custom
  High: Low: Average:
Temperature: 72.9 °F /  22.7 °C 42.8 °F /  6 °C 57.2 °F /  14 °C
Dew Point: 45.5 °F /  7.5 °C 37.2 °F /  2.9 °C 39.9 °F /  4.4 °C
Humidity: 82% 30% 56%
Wind Speed: 4.9mph /  7.9km/h - 0.9mph /  1.5km/h
Wind Gust: 8mph /  12.9km/h - -
Wind- - South
Pressure: 29.8 in /  1010.2 hPa 29.8 in /  1007.5 hPa -
Precipitation: 0 in /  0.0 mm    
Historical Graphs
 
 
Tabular Data for June 26, 2020
Time Temperature Dew Point Pressure Wind Wind Speed Wind Gust Humidity Rainfall Rate (Hourly) solar
00:04 51.1 °F /  10.6 °C 39.7 °F /  4.3 °C 29.8in /  1009.5hPa NNW 2mph /  3.2km/h 2mph /  3.2km/h 65% 0in /  0.0mm 0 W/m2
00:09 51.1 °F /  10.6 °C 39.4 °F /  4.1 °C 29.8in /  1009.5hPa Calm   1mph /  1.6km/h 64% 0in /  0.0mm 0 W/m2
00:14 50.9 °F /  10.5 °C 39.6 °F /  4.2 °C 29.8in /  1009.5hPa North 0.9mph /  1.4km/h 1mph /  1.6km/h 65% 0in /  0.0mm 0 W/m2
00:19 50.9 °F /  10.5 °C 39.2 °F /  4 °C 29.8in /  1009.8hPa Calm   2mph /  3.2km/h 64% 0in /  0.0mm 0 W/m2
00:24 50.9 °F /  10.5 °C 39.6 °F /  4.2 °C 29.8in /  1009.8hPa South 0.9mph /  1.4km/h 2mph /  3.2km/h 65% 0in /  0.0mm 0 W/m2
00:29 50.7 °F /  10.4 °C 39.4 °F /  4.1 °C 29.8in /  1009.8hPa Calm   1mph /  1.6km/h 65% 0in /  0.0mm 0 W/m2
00:34 50.5 °F /  10.3 °C 39.2 °F /  4 °C 29.8in /  1009.8hPa ESE 0.9mph /  1.4km/h 2mph /  3.2km/h 65% 0in /  0.0mm 0 W/m2
00:39 50.5 °F /  10.3 °C 38.8 °F /  3.8 °C 29.8in /  1009.8hPa ESE 0.9mph /  1.4km/h 2mph /  3.2km/h 64% 0in /  0.0mm 0 W/m2
00:45 50.7 °F /  10.4 °C 39 °F /  3.9 °C 29.8in /  1009.8hPa SSW 2mph /  3.2km/h 4mph /  6.4km/h 64% 0in /  0.0mm 0 W/m2
00:50 50.7 °F /  10.4 °C 38.7 °F /  3.7 °C 29.8in /  1009.8hPa SE 0.9mph /  1.4km/h 2mph /  3.2km/h 63% 0in /  0.0mm 0 W/m2
00:55 51.1 °F /  10.6 °C 38.5 °F /  3.6 °C 29.8in /  1009.8hPa North 2mph /  3.2km/h 3mph /  4.8km/h 62% 0in /  0.0mm 0 W/m2
01:00 51.3 °F /  10.7 °C 38.7 °F /  3.7 °C 29.8in /  1009.8hPa Calm   2mph /  3.2km/h 62% 0in /  0.0mm 0 W/m2
01:05 51.3 °F /  10.7 °C 39 °F /  3.9 °C 29.8in /  1009.8hPa Calm   1mph /  1.6km/h 63% 0in /  0.0mm 0 W/m2
01:10 51.3 °F /  10.7 °C 39 °F /  3.9 °C 29.8in /  1009.8hPa SW 0.9mph /  1.4km/h 1mph /  1.6km/h 63% 0in /  0.0mm 0 W/m2
01:15 50.9 °F /  10.5 °C 38.8 °F /  3.8 °C 29.8in /  1009.8hPa NW 0.9mph /  1.4km/h 3mph /  4.8km/h 63% 0in /  0.0mm 0 W/m2
01:20 50.5 °F /  10.3 °C 38.8 °F /  3.8 °C 29.8in /  1009.8hPa NW 0.9mph /  1.4km/h 2mph /  3.2km/h 64% 0in /  0.0mm 0 W/m2
01:25 50.4 °F /  10.2 °C 38.7 °F /  3.7 °C 29.8in /  1009.8hPa West 0.9mph /  1.4km/h 3mph /  4.8km/h 64% 0in /  0.0mm 0 W/m2
01:30 50 °F /  10 °C 38.7 °F /  3.7 °C 29.8in /  1009.8hPa Calm   1mph /  1.6km/h 65% 0in /  0.0mm 0 W/m2
01:35 49.6 °F /  9.8 °C 38.7 °F /  3.7 °C 29.8in /  1009.8hPa Calm   2mph /  3.2km/h 66% 0in /  0.0mm 0 W/m2
01:40 49.5 °F /  9.7 °C 38.7 °F /  3.7 °C 29.8in /  1009.8hPa Calm   1mph /  1.6km/h 66% 0in /  0.0mm 0 W/m2
01:45 49.3 °F /  9.6 °C 38.5 °F /  3.6 °C 29.8in /  1009.8hPa West 0.9mph /  1.4km/h 2mph /  3.2km/h 66% 0in /  0.0mm 0 W/m2
01:50 49.3 °F /  9.6 °C 38.5 °F /  3.6 °C 29.8in /  1009.8hPa Calm   1mph /  1.6km/h 66% 0in /  0.0mm 0 W/m2
01:55 48.9 °F /  9.4 °C 38.5 °F /  3.6 °C 29.8in /  1009.8hPa Calm   1mph /  1.6km/h 67% 0in /  0.0mm 0 W/m2
02:00 48.7 °F /  9.3 °C 38.3 °F /  3.5 °C 29.8in /  1009.8hPa NW 0.9mph /  1.4km/h 1mph /  1.6km/h 67% 0in /  0.0mm 0 W/m2
02:05 48.7 °F /  9.3 °C 38.7 °F /  3.7 °C 29.8in /  1009.8hPa West 0.9mph /  1.4km/h 2mph /  3.2km/h 68% 0in /  0.0mm 0 W/m2
02:10 48.6 °F /  9.2 °C 38.5 °F /  3.6 °C 29.8in /  1009.8hPa West 2mph /  3.2km/h 2mph /  3.2km/h 68% 0in /  0.0mm 0 W/m2
02:15 48.4 °F /  9.1 °C 38.3 °F /  3.5 °C 29.8in /  1009.8hPa Calm   1mph /  1.6km/h 68% 0in /  0.0mm 0 W/m2
02:20 48 °F /  8.9 °C 37.9 °F /  3.3 °C 29.8in /  1009.8hPa Calm   1mph /  1.6km/h 68% 0in /  0.0mm 0 W/m2
02:25 47.8 °F /  8.8 °C 38.1 °F /  3.4 °C 29.8in /  1009.8hPa Calm   1mph /  1.6km/h 69% 0in /  0.0mm 0 W/m2
02:30 47.8 °F /  8.8 °C 38.1 °F /  3.4 °C 29.8in /  1009.8hPa Calm   1mph /  1.6km/h 69% 0in /  0.0mm 0 W/m2
02:35 47.8 °F /  8.8 °C 38.1 °F /  3.4 °C 29.8in /  1009.8hPa Calm   1mph /  1.6km/h 69% 0in /  0.0mm 0 W/m2
02:40 47.8 °F /  8.8 °C 38.1 °F /  3.4 °C 29.8in /  1009.8hPa Calm   2mph /  3.2km/h 69% 0in /  0.0mm 0 W/m2
02:45 48 °F /  8.9 °C 37.9 °F /  3.3 °C 29.8in /  1009.8hPa WNW 0.9mph /  1.4km/h 1mph /  1.6km/h 68% 0in /  0.0mm 0 W/m2
02:50 48 °F /  8.9 °C 37.9 °F /  3.3 °C 29.8in /  1009.8hPa Calm   2mph /  3.2km/h 68% 0in /  0.0mm 0 W/m2
02:55 48.2 °F /  9 °C 38.1 °F /  3.4 °C 29.8in /  1009.5hPa Calm   1mph /  1.6km/h 68% 0in /  0.0mm 0 W/m2
03:00 48 °F /  8.9 °C 37.9 °F /  3.3 °C 29.8in /  1009.5hPa Calm   1mph /  1.6km/h 68% 0in /  0.0mm 0 W/m2
03:05 47.8 °F /  8.8 °C 38.1 °F /  3.4 °C 29.8in /  1009.5hPa Calm   2mph /  3.2km/h 69% 0in /  0.0mm 0 W/m2
03:10 47.8 °F /  8.8 °C 38.1 °F /  3.4 °C 29.8in /  1009.8hPa Calm   1mph /  1.6km/h 69% 0in /  0.0mm 0 W/m2
03:15 47.7 °F /  8.7 °C 38.3 °F /  3.5 °C 29.8in /  1009.5hPa West 0.9mph /  1.4km/h 2mph /  3.2km/h 70% 0in /  0.0mm 0 W/m2
03:20 47.5 °F /  8.6 °C 38.1 °F /  3.4 °C 29.8in /  1009.5hPa SW 2mph /  3.2km/h 2mph /  3.2km/h 70% 0in /  0.0mm 0 W/m2
03:25 47.5 °F /  8.6 °C 38.1 °F /  3.4 °C 29.8in /  1009.5hPa Calm     70% 0in /  0.0mm 0 W/m2
03:30 47.3 °F /  8.5 °C 37.9 °F /  3.3 °C 29.8in /  1009.5hPa SW 0.9mph /  1.4km/h 1mph /  1.6km/h 70% 0in /  0.0mm 0 W/m2
03:35 47.1 °F /  8.4 °C 38.1 °F /  3.4 °C 29.8in /  1009.5hPa SSW 0.9mph /  1.4km/h 1mph /  1.6km/h 71% 0in /  0.0mm 0 W/m2
03:40 47.1 °F /  8.4 °C 38.1 °F /  3.4 °C 29.8in /  1009.5hPa Calm   6mph /  9.7km/h 71% 0in /  0.0mm 0 W/m2
03:45 47.3 °F /  8.5 °C 38.3 °F /  3.5 °C 29.8in /  1009.5hPa Calm   2mph /  3.2km/h 71% 0in /  0.0mm 0 W/m2
03:50 47.1 °F /  8.4 °C 38.1 °F /  3.4 °C 29.8in /  1009.5hPa WSW 0.9mph /  1.4km/h 5mph /  8km/h 71% 0in /  0.0mm 0 W/m2
03:55 46.9 °F /  8.3 °C 38.1 °F /  3.4 °C 29.8in /  1009.5hPa Calm   1mph /  1.6km/h 71% 0in /  0.0mm 0 W/m2
04:00 46.6 °F /  8.1 °C 38.1 °F /  3.4 °C 29.8in /  1009.5hPa WSW 0.9mph /  1.4km/h 1mph /  1.6km/h 72% 0in /  0.0mm 0 W/m2
04:05 46.2 °F /  7.9 °C 37.8 °F /  3.2 °C 29.8in /  1009.5hPa WSW 2mph /  3.2km/h 2mph /  3.2km/h 72% 0in /  0.0mm 0 W/m2
04:10 45.9 °F /  7.7 °C 37.8 °F /  3.2 °C 29.8in /  1009.5hPa Calm   2mph /  3.2km/h 73% 0in /  0.0mm 0 W/m2
04:15 45.3 °F /  7.4 °C 37.6 °F /  3.1 °C 29.8in /  1009.5hPa WSW 0.9mph /  1.4km/h 1mph /  1.6km/h 74% 0in /  0.0mm 0 W/m2
04:21 45.1 °F /  7.3 °C 37.8 °F /  3.2 °C 29.8in /  1009.5hPa Calm   1mph /  1.6km/h 75% 0in /  0.0mm 0 W/m2
04:26 44.8 °F /  7.1 °C 37.8 °F /  3.2 °C 29.8in /  1009.5hPa Calm   2mph /  3.2km/h 76% 0in /  0.0mm 0 W/m2
04:31 44.4 °F /  6.9 °C 37.4 °F /  3 °C 29.8in /  1009.5hPa Calm     76% 0in /  0.0mm 0 W/m2
04:36 44.2 °F /  6.8 °C 37.6 °F /  3.1 °C 29.8in /  1009.5hPa Calm   2mph /  3.2km/h 77% 0in /  0.0mm 0 W/m2
04:41 44.1 °F /  6.7 °C 37.6 °F /  3.1 °C 29.8in /  1009.5hPa Calm     78% 0in /  0.0mm 0 W/m2
04:46 43.9 °F /  6.6 °C 37.4 °F /  3 °C 29.8in /  1009.5hPa Calm     78% 0in /  0.0mm 0 W/m2
04:51 43.9 °F /  6.6 °C 37.4 °F /  3 °C 29.8in /  1009.5hPa Calm   1mph /  1.6km/h 78% 0in /  0.0mm 0 W/m2
04:56 43.7 °F /  6.5 °C 37.2 °F /  2.9 °C 29.8in /  1009.5hPa WSW 0.9mph /  1.4km/h 1mph /  1.6km/h 78% 0in /  0.0mm 0 W/m2
05:01 43.5 °F /  6.4 °C 37.4 °F /  3 °C 29.8in /  1009.5hPa WSW 0.9mph /  1.4km/h 2mph /  3.2km/h 79% 0in /  0.0mm 0 W/m2
05:06 43.5 °F /  6.4 °C 37.4 °F /  3 °C 29.8in /  1009.1hPa Calm     79% 0in /  0.0mm 0 W/m2
05:11 43.3 °F /  6.3 °C 37.2 °F /  2.9 °C 29.8in /  1009.5hPa Calm   2mph /  3.2km/h 79% 0in /  0.0mm 0 W/m2
05:16 43.3 °F /  6.3 °C 37.6 °F /  3.1 °C 29.8in /  1009.5hPa WSW 0.9mph /  1.4km/h 1mph /  1.6km/h 80% 0in /  0.0mm 0 W/m2
05:21 43.2 °F /  6.2 °C 37.4 °F /  3 °C 29.8in /  1009.1hPa WSW 0.9mph /  1.4km/h 2mph /  3.2km/h 80% 0in /  0.0mm 0 W/m2
05:26 43 °F /  6.1 °C 37.2 °F /  2.9 °C 29.8in /  1009.1hPa Calm   1mph /  1.6km/h 80% 0in /  0.0mm 0 W/m2
05:31 43 °F /  6.1 °C 37.6 °F /  3.1 °C 29.8in /  1009.1hPa Calm     81% 0in /  0.0mm 0 W/m2
05:36 43 °F /  6.1 °C 37.6 °F /  3.1 °C 29.8in /  1009.1hPa Calm   1mph /  1.6km/h 81% 0in /  0.0mm 0 W/m2
05:41 43 °F /  6.1 °C 37.6 °F /  3.1 °C 29.8in /  1009.1hPa Calm   1mph /  1.6km/h 81% 0in /  0.0mm 0 W/m2
05:46 43 °F /  6.1 °C 37.6 °F /  3.1 °C 29.8in /  1009.1hPa Calm   1mph /  1.6km/h 81% 0in /  0.0mm 0 W/m2
05:51 42.8 °F /  6 °C 37.8 °F /  3.2 °C 29.8in /  1009.1hPa Calm   1mph /  1.6km/h 82% 0in /  0.0mm 0 W/m2
05:56 43 °F /  6.1 °C 37.6 °F /  3.1 °C 29.8in /  1009.1hPa Calm     81% 0in /  0.0mm 0 W/m2
06:01 43 °F /  6.1 °C 37.9 °F /  3.3 °C 29.8in /  1009.1hPa Calm     82% 0in /  0.0mm 0 W/m2
06:06 43 °F /  6.1 °C 37.6 °F /  3.1 °C 29.8in /  1009.1hPa Calm     81% 0in /  0.0mm 0 W/m2
06:11 43 °F /  6.1 °C 37.6 °F /  3.1 °C 29.8in /  1009.1hPa WSW 0.9mph /  1.4km/h 1mph /  1.6km/h 81% 0in /  0.0mm 0 W/m2
06:16 42.8 °F /  6 °C 37.4 °F /  3 °C 29.8in /  1009.1hPa Calm   2mph /  3.2km/h 81% 0in /  0.0mm 0 W/m2
06:21 42.8 °F /  6 °C 37.4 °F /  3 °C 29.8in /  1009.1hPa Calm     81% 0in /  0.0mm 5 W/m2
06:26 42.8 °F /  6 °C 37.8 °F /  3.2 °C 29.8in /  1009.1hPa Calm   1mph /  1.6km/h 82% 0in /  0.0mm 7 W/m2
06:31 43 °F /  6.1 °C 37.9 °F /  3.3 °C 29.8in /  1009.1hPa Calm   2mph /  3.2km/h 82% 0in /  0.0mm 12 W/m2
06:36 43 °F /  6.1 °C 37.9 °F /  3.3 °C 29.8in /  1009.1hPa Calm     82% 0in /  0.0mm 16 W/m2
06:41 43 °F /  6.1 °C 37.9 °F /  3.3 °C 29.8in /  1009.1hPa Calm   2mph /  3.2km/h 82% 0in /  0.0mm 21 W/m2
06:46 43.2 °F /  6.2 °C 38.1 °F /  3.4 °C 29.8in /  1009.5hPa Calm     82% 0in /  0.0mm 25 W/m2
06:51 43.2 °F /  6.2 °C 37.8 °F /  3.2 °C 29.8in /  1009.5hPa Calm     81% 0in /  0.0mm 28 W/m2
06:56 43.2 °F /  6.2 °C 38.1 °F /  3.4 °C 29.8in /  1009.5hPa Calm     82% 0in /  0.0mm 32 W/m2
07:01 43.3 °F /  6.3 °C 38.3 °F /  3.5 °C 29.8in /  1009.5hPa Calm   1mph /  1.6km/h 82% 0in /  0.0mm 33 W/m2
07:06 43.3 °F /  6.3 °C 38.3 °F /  3.5 °C 29.8in /  1009.5hPa Calm     82% 0in /  0.0mm 39 W/m2
07:11 43.5 °F /  6.4 °C 38.5 °F /  3.6 °C 29.8in /  1009.5hPa Calm     82% 0in /  0.0mm 39 W/m2
07:16 43.7 °F /  6.5 °C 38.5 °F /  3.6 °C 29.8in /  1009.5hPa Calm   1mph /  1.6km/h 82% 0in /  0.0mm 42 W/m2
07:21 43.9 °F /  6.6 °C 38.7 °F /  3.7 °C 29.8in /  1009.5hPa Calm     82% 0in /  0.0mm 44 W/m2
07:26 44.1 °F /  6.7 °C 38.8 °F /  3.8 °C 29.8in /  1009.5hPa Calm     82% 0in /  0.0mm 49 W/m2
07:31 44.2 °F /  6.8 °C 39 °F /  3.9 °C 29.8in /  1009.5hPa Calm     82% 0in /  0.0mm 54 W/m2
07:36 44.4 °F /  6.9 °C 39.2 °F /  4 °C 29.8in /  1009.5hPa Calm     82% 0in /  0.0mm 74 W/m2
07:41 44.8 °F /  7.1 °C 39.4 °F /  4.1 °C 29.8in /  1009.5hPa Calm   1mph /  1.6km/h 81% 0in /  0.0mm 90 W/m2
07:46 45.1 °F /  7.3 °C 39 °F /  3.9 °C 29.8in /  1009.5hPa Calm     79% 0in /  0.0mm 79 W/m2
07:51 45.7 °F /  7.6 °C 39.2 °F /  4 °C 29.8in /  1009.5hPa Calm     78% 0in /  0.0mm 65 W/m2
07:57 46 °F /  7.8 °C 38.8 °F /  3.8 °C 29.8in /  1009.8hPa West 2mph /  3.2km/h 2mph /  3.2km/h 76% 0in /  0.0mm 144 W/m2
08:01 46.6 °F /  8.1 °C 38.7 °F /  3.7 °C 29.8in /  1009.8hPa WNW 2mph /  3.2km/h 3mph /  4.8km/h 74% 0in /  0.0mm 185 W/m2
08:06 47.1 °F /  8.4 °C 39.2 °F /  4 °C 29.8in /  1009.5hPa WNW 0.9mph /  1.4km/h 1mph /  1.6km/h 74% 0in /  0.0mm 216 W/m2
08:11 48 °F /  8.9 °C 39.7 °F /  4.3 °C 29.8in /  1009.5hPa ESE 2mph /  3.2km/h 3mph /  4.8km/h 73% 0in /  0.0mm 227 W/m2
08:16 48.7 °F /  9.3 °C 39.7 °F /  4.3 °C 29.8in /  1009.5hPa Calm   2mph /  3.2km/h 71% 0in /  0.0mm 241 W/m2
08:21 48.9 °F /  9.4 °C 39.6 °F /  4.2 °C 29.8in /  1009.8hPa North 0.9mph /  1.4km/h 1mph /  1.6km/h 70% 0in /  0.0mm 255 W/m2
08:26 49.5 °F /  9.7 °C 40.1 °F /  4.5 °C 29.8in /  1009.8hPa East 2mph /  3.2km/h 2mph /  3.2km/h 70% 0in /  0.0mm 267 W/m2
08:31 49.8 °F /  9.9 °C 39.7 °F /  4.3 °C 29.8in /  1009.8hPa Calm   2mph /  3.2km/h 68% 0in /  0.0mm 283 W/m2
08:36 50.2 °F /  10.1 °C 40.5 °F /  4.7 °C 29.8in /  1009.8hPa East 0.9mph /  1.4km/h 2mph /  3.2km/h 69% 0in /  0.0mm 292 W/m2
08:42 50.5 °F /  10.3 °C 40.5 °F /  4.7 °C 29.8in /  1009.8hPa East 2mph /  3.2km/h 3mph /  4.8km/h 68% 0in /  0.0mm 308 W/m2
08:47 50.5 °F /  10.3 °C 40.5 °F /  4.7 °C 29.8in /  1009.8hPa East 0.9mph /  1.4km/h 2mph /  3.2km/h 68% 0in /  0.0mm 325 W/m2
08:52 50.7 °F /  10.4 °C 40.1 °F /  4.5 °C 29.8in /  1009.8hPa SE 2.9mph /  4.7km/h 3mph /  4.8km/h 67% 0in /  0.0mm 336 W/m2
08:57 50.5 °F /  10.3 °C 39.9 °F /  4.4 °C 29.8in /  1009.8hPa NE 0.9mph /  1.4km/h 2mph /  3.2km/h 67% 0in /  0.0mm 348 W/m2
09:02 50.7 °F /  10.4 °C 40.5 °F /  4.7 °C 29.8in /  1009.8hPa ENE 0.9mph /  1.4km/h 3mph /  4.8km/h 68% 0in /  0.0mm 362 W/m2
09:07 51.1 °F /  10.6 °C 40.1 °F /  4.5 °C 29.8in /  1009.8hPa East 2mph /  3.2km/h 3mph /  4.8km/h 66% 0in /  0.0mm 378 W/m2
09:12 51.1 °F /  10.6 °C 40.1 °F /  4.5 °C 29.8in /  1009.8hPa East 2.9mph /  4.7km/h 4mph /  6.4km/h 66% 0in /  0.0mm 388 W/m2
09:17 51.1 °F /  10.6 °C 40.1 °F /  4.5 °C 29.8in /  1009.8hPa NE 2.9mph /  4.7km/h 3mph /  4.8km/h 66% 0in /  0.0mm 403 W/m2
09:22 51.3 °F /  10.7 °C 40.3 °F /  4.6 °C 29.8in /  1009.8hPa Calm   2mph /  3.2km/h 66% 0in /  0.0mm 413 W/m2
09:27 51.8 °F /  11 °C 41.2 °F /  5.1 °C 29.8in /  1009.8hPa ESE 2mph /  3.2km/h 3mph /  4.8km/h 67% 0in /  0.0mm 425 W/m2
09:32 52.3 °F /  11.3 °C 41 °F /  5 °C 29.8in /  1009.8hPa Calm   2mph /  3.2km/h 65% 0in /  0.0mm 438 W/m2
09:37 52.9 °F /  11.6 °C 40.6 °F /  4.8 °C 29.8in /  1009.8hPa WNW 0.9mph /  1.4km/h 2mph /  3.2km/h 63% 0in /  0.0mm 450 W/m2
09:42 53.6 °F /  12 °C 41.4 °F /  5.2 °C 29.8in /  1009.8hPa East 2mph /  3.2km/h 3mph /  4.8km/h 63% 0in /  0.0mm 466 W/m2
09:48 54.3 °F /  12.4 °C 41.2 °F /  5.1 °C 29.8in /  1009.8hPa East 2mph /  3.2km/h 2mph /  3.2km/h 61% 0in /  0.0mm 480 W/m2
09:53 54.9 °F /  12.7 °C 41.2 °F /  5.1 °C 29.8in /  1009.8hPa Calm   2mph /  3.2km/h 60% 0in /  0.0mm 480 W/m2
09:58 55.2 °F /  12.9 °C 41.5 °F /  5.3 °C 29.8in /  1009.8hPa ESE 2mph /  3.2km/h 4mph /  6.4km/h 60% 0in /  0.0mm 69 W/m2
10:03 56.1 °F /  13.4 °C 41.5 °F /  5.3 °C 29.8in /  1009.8hPa ESE 2mph /  3.2km/h 4mph /  6.4km/h 58% 0in /  0.0mm 510 W/m2
10:08 56.8 °F /  13.8 °C 41.7 °F /  5.4 °C 29.8in /  1009.8hPa ENE 0.9mph /  1.4km/h 4mph /  6.4km/h 57% 0in /  0.0mm 526 W/m2
10:13 57 °F /  13.9 °C 41.5 °F /  5.3 °C 29.8in /  1009.8hPa Calm   3mph /  4.8km/h 56% 0in /  0.0mm 538 W/m2
10:18 56.8 °F /  13.8 °C 41.4 °F /  5.2 °C 29.8in /  1009.8hPa SE 2mph /  3.2km/h 3mph /  4.8km/h 56% 0in /  0.0mm 550 W/m2
10:23 56.8 °F /  13.8 °C 41.7 °F /  5.4 °C 29.8in /  1010.2hPa North 0.9mph /  1.4km/h 2mph /  3.2km/h 57% 0in /  0.0mm 555 W/m2
10:28 57.2 °F /  14 °C 41.7 °F /  5.4 °C 29.8in /  1010.2hPa North 0.9mph /  1.4km/h 3mph /  4.8km/h 56% 0in /  0.0mm 570 W/m2
10:33 57.6 °F /  14.2 °C 41.9 °F /  5.5 °C 29.8in /  1010.2hPa ENE 0.9mph /  1.4km/h 3mph /  4.8km/h 56% 0in /  0.0mm 582 W/m2
10:38 57.9 °F /  14.4 °C 42.3 °F /  5.7 °C 29.8in /  1010.2hPa North 0.9mph /  1.4km/h 2mph /  3.2km/h 56% 0in /  0.0mm 592 W/m2
10:43 58.3 °F /  14.6 °C 41.7 °F /  5.4 °C 29.8in /  1010.2hPa ENE 0.9mph /  1.4km/h 2mph /  3.2km/h 54% 0in /  0.0mm 601 W/m2
10:48 58.6 °F /  14.8 °C 41.5 °F /  5.3 °C 29.8in /  1010.2hPa East 2mph /  3.2km/h 4mph /  6.4km/h 53% 0in /  0.0mm 613 W/m2
10:53 59.4 °F /  15.2 °C 42.3 °F /  5.7 °C 29.8in /  1010.2hPa Calm   4mph /  6.4km/h 53% 0in /  0.0mm 619 W/m2
10:58 59.7 °F /  15.4 °C 42.1 °F /  5.6 °C 29.8in /  1010.2hPa East 0.9mph /  1.4km/h 2mph /  3.2km/h 52% 0in /  0.0mm 635 W/m2
11:03 59.7 °F /  15.4 °C 42.1 °F /  5.6 °C 29.8in /  1010.2hPa SE 2mph /  3.2km/h 3mph /  4.8km/h 52% 0in /  0.0mm 645 W/m2
11:08 60.1 °F /  15.6 °C 41.9 °F /  5.5 °C 29.8in /  1010.2hPa ENE 0.9mph /  1.4km/h 5mph /  8km/h 51% 0in /  0.0mm 649 W/m2
11:13 59.9 °F /  15.5 °C 42.3 °F /  5.7 °C 29.8in /  1010.2hPa East 4mph /  6.4km/h 4mph /  6.4km/h 52% 0in /  0.0mm 657 W/m2
11:18 60.4 °F /  15.8 °C 41.7 °F /  5.4 °C 29.8in /  1010.2hPa Calm   4mph /  6.4km/h 50% 0in /  0.0mm 668 W/m2
11:23 61 °F /  16.1 °C 42.3 °F /  5.7 °C 29.8in /  1010.2hPa Calm   1mph /  1.6km/h 50% 0in /  0.0mm 675 W/m2
11:28 61.3 °F /  16.3 °C 41.5 °F /  5.3 °C 29.8in /  1010.2hPa North 0.9mph /  1.4km/h 2mph /  3.2km/h 48% 0in /  0.0mm 684 W/m2
11:33 61.9 °F /  16.6 °C 43 °F /  6.1 °C 29.8in /  1010.2hPa Calm   3mph /  4.8km/h 50% 0in /  0.0mm 689 W/m2
11:38 62.1 °F /  16.7 °C 42.6 °F /  5.9 °C 29.8in /  1009.8hPa SSE 0.9mph /  1.4km/h 2mph /  3.2km/h 49% 0in /  0.0mm 701 W/m2
11:44 62.6 °F /  17 °C 41.5 °F /  5.3 °C 29.8in /  1009.8hPa SE 2mph /  3.2km/h 4mph /  6.4km/h 46% 0in /  0.0mm 707 W/m2
11:49 62.8 °F /  17.1 °C 40.5 °F /  4.7 °C 29.8in /  1009.8hPa Calm   2mph /  3.2km/h 44% 0in /  0.0mm 717 W/m2
11:54 63 °F /  17.2 °C 41.4 °F /  5.2 °C 29.8in /  1009.8hPa ENE 2mph /  3.2km/h 4mph /  6.4km/h 45% 0in /  0.0mm 717 W/m2
11:59 63.3 °F /  17.4 °C 41 °F /  5 °C 29.8in /  1009.8hPa ENE 2.9mph /  4.7km/h 4mph /  6.4km/h 44% 0in /  0.0mm 728 W/m2
12:04 63.9 °F /  17.7 °C 39.7 °F /  4.3 °C 29.8in /  1009.8hPa East 4.9mph /  7.9km/h 8mph /  12.9km/h 41% 0in /  0.0mm 733 W/m2
12:09 64 °F /  17.8 °C 41.2 °F /  5.1 °C 29.8in /  1009.8hPa ENE 4mph /  6.4km/h 4mph /  6.4km/h 43% 0in /  0.0mm 742 W/m2
12:14 64.6 °F /  18.1 °C 40.3 °F /  4.6 °C 29.8in /  1009.8hPa East 2mph /  3.2km/h 3mph /  4.8km/h 41% 0in /  0.0mm 745 W/m2
12:19 65.1 °F /  18.4 °C 39.6 °F /  4.2 °C 29.8in /  1009.8hPa NE 2mph /  3.2km/h 5mph /  8km/h 39% 0in /  0.0mm 747 W/m2
12:24 65.3 °F /  18.5 °C 40.3 °F /  4.6 °C 29.8in /  1009.8hPa SE 0.9mph /  1.4km/h 4mph /  6.4km/h 40% 0in /  0.0mm 749 W/m2
12:29 65.1 °F /  18.4 °C 39.6 °F /  4.2 °C 29.8in /  1009.8hPa ESE 2mph /  3.2km/h 3mph /  4.8km/h 39% 0in /  0.0mm 758 W/m2
12:34 65.7 °F /  18.7 °C 40.6 °F /  4.8 °C 29.8in /  1009.5hPa SE 0.9mph /  1.4km/h 4mph /  6.4km/h 40% 0in /  0.0mm 761 W/m2
12:39 65.8 °F /  18.8 °C 39.6 °F /  4.2 °C 29.8in /  1009.5hPa North 2mph /  3.2km/h 2mph /  3.2km/h 38% 0in /  0.0mm 765 W/m2
12:44 65.8 °F /  18.8 °C 40.1 °F /  4.5 °C 29.8in /  1009.5hPa West 2mph /  3.2km/h 3mph /  4.8km/h 39% 0in /  0.0mm 766 W/m2
12:49 65.5 °F /  18.6 °C 39.2 °F /  4 °C 29.8in /  1009.5hPa WNW 0.9mph /  1.4km/h 4mph /  6.4km/h 38% 0in /  0.0mm 768 W/m2
12:54 65.1 °F /  18.4 °C 38.8 °F /  3.8 °C 29.8in /  1009.5hPa Calm   4mph /  6.4km/h 38% 0in /  0.0mm 768 W/m2
12:59 65.1 °F /  18.4 °C 39.6 °F /  4.2 °C 29.8in /  1009.1hPa Calm   1mph /  1.6km/h 39% 0in /  0.0mm 773 W/m2
13:04 65.7 °F /  18.7 °C 41.4 °F /  5.2 °C 29.8in /  1009.1hPa ENE 2.9mph /  4.7km/h 4mph /  6.4km/h 41% 0in /  0.0mm 777 W/m2
13:09 66.2 °F /  19 °C 40.5 °F /  4.7 °C 29.8in /  1009.1hPa SW 0.9mph /  1.4km/h 2mph /  3.2km/h 39% 0in /  0.0mm 777 W/m2
13:14 66.6 °F /  19.2 °C 40.1 °F /  4.5 °C 29.8in /  1009.1hPa NNE 2mph /  3.2km/h 2mph /  3.2km/h 38% 0in /  0.0mm 782 W/m2
13:19 66.7 °F /  19.3 °C 40.3 °F /  4.6 °C 29.8in /  1009.1hPa East 2.9mph /  4.7km/h 8mph /  12.9km/h 38% 0in /  0.0mm 782 W/m2
13:24 66.4 °F /  19.1 °C 39.4 °F /  4.1 °C 29.8in /  1009.1hPa NW 2.9mph /  4.7km/h 4mph /  6.4km/h 37% 0in /  0.0mm 779 W/m2
13:29 66.2 °F /  19 °C 39.2 °F /  4 °C 29.8in /  1009.1hPa Calm   7mph /  11.3km/h 37% 0in /  0.0mm 780 W/m2
13:34 66.4 °F /  19.1 °C 39.4 °F /  4.1 °C 29.8in /  1009.1hPa ENE 2mph /  3.2km/h 7mph /  11.3km/h 37% 0in /  0.0mm 777 W/m2
13:39 66.4 °F /  19.1 °C 39.9 °F /  4.4 °C 29.8in /  1009.1hPa NE 4mph /  6.4km/h 6mph /  9.7km/h 38% 0in /  0.0mm 780 W/m2
13:44 66.4 °F /  19.1 °C 39.4 °F /  4.1 °C 29.8in /  1009.1hPa WNW 0.9mph /  1.4km/h 3mph /  4.8km/h 37% 0in /  0.0mm 775 W/m2
13:49 66.6 °F /  19.2 °C 39.6 °F /  4.2 °C 29.8in /  1009.1hPa ENE 4mph /  6.4km/h 6mph /  9.7km/h 37% 0in /  0.0mm 773 W/m2
13:54 66.7 °F /  19.3 °C 41 °F /  5 °C 29.8in /  1008.8hPa East 2.9mph /  4.7km/h 3mph /  4.8km/h 39% 0in /  0.0mm 770 W/m2
13:59 66.9 °F /  19.4 °C 39 °F /  3.9 °C 29.8in /  1008.8hPa ENE 2.9mph /  4.7km/h 8mph /  12.9km/h 36% 0in /  0.0mm 772 W/m2
14:04 66.7 °F /  19.3 °C 38.3 °F /  3.5 °C 29.8in /  1008.8hPa West 2mph /  3.2km/h 3mph /  4.8km/h 35% 0in /  0.0mm 765 W/m2
14:09 66.7 °F /  19.3 °C 39.6 °F /  4.2 °C 29.8in /  1008.8hPa WNW 0.9mph /  1.4km/h 5mph /  8km/h 37% 0in /  0.0mm 763 W/m2
14:14 67.1 °F /  19.5 °C 38.5 °F /  3.6 °C 29.8in /  1008.8hPa West 2.9mph /  4.7km/h 6mph /  9.7km/h 35% 0in /  0.0mm 761 W/m2
14:19 66.6 °F /  19.2 °C 38.8 °F /  3.8 °C 29.8in /  1008.8hPa NNW 2mph /  3.2km/h 4mph /  6.4km/h 36% 0in /  0.0mm 759 W/m2
14:24 66.9 °F /  19.4 °C 39 °F /  3.9 °C 29.8in /  1008.8hPa NNW 2.9mph /  4.7km/h 4mph /  6.4km/h 36% 0in /  0.0mm 756 W/m2
14:29 66.9 °F /  19.4 °C 39 °F /  3.9 °C 29.8in /  1008.5hPa NNW 0.9mph /  1.4km/h 3mph /  4.8km/h 36% 0in /  0.0mm 752 W/m2
14:34 67.3 °F /  19.6 °C 40.1 °F /  4.5 °C 29.8in /  1008.5hPa NNW 2mph /  3.2km/h 5mph /  8km/h 37% 0in /  0.0mm 751 W/m2
14:39 67.6 °F /  19.8 °C 40.5 °F /  4.7 °C 29.8in /  1008.5hPa ESE 2mph /  3.2km/h 4mph /  6.4km/h 37% 0in /  0.0mm 745 W/m2
14:44 67.8 °F /  19.9 °C 40.6 °F /  4.8 °C 29.8in /  1008.5hPa SE 0.9mph /  1.4km/h 2mph /  3.2km/h 37% 0in /  0.0mm 742 W/m2
14:49 68.4 °F /  20.2 °C 40.3 °F /  4.6 °C 29.8in /  1008.5hPa Calm   2mph /  3.2km/h 36% 0in /  0.0mm 733 W/m2
14:54 69.1 °F /  20.6 °C 39.6 °F /  4.2 °C 29.8in /  1008.5hPa Calm   1mph /  1.6km/h 34% 0in /  0.0mm 733 W/m2
14:59 69.3 °F /  20.7 °C 39.7 °F /  4.3 °C 29.8in /  1008.5hPa West 4mph /  6.4km/h 4mph /  6.4km/h 34% 0in /  0.0mm 733 W/m2
15:04 68.9 °F /  20.5 °C 40.1 °F /  4.5 °C 29.8in /  1008.5hPa West 2.9mph /  4.7km/h 7mph /  11.3km/h 35% 0in /  0.0mm 728 W/m2
15:09 68.2 °F /  20.1 °C 39.6 °F /  4.2 °C 29.8in /  1008.5hPa WSW 2.9mph /  4.7km/h 8mph /  12.9km/h 35% 0in /  0.0mm 726 W/m2
15:14 67.6 °F /  19.8 °C 40.5 °F /  4.7 °C 29.8in /  1008.5hPa West 0.9mph /  1.4km/h 3mph /  4.8km/h 37% 0in /  0.0mm 708 W/m2
15:19 68 °F /  20 °C 39.4 °F /  4.1 °C 29.8in /  1008.1hPa Calm   2mph /  3.2km/h 35% 0in /  0.0mm 698 W/m2
15:24 68.5 °F /  20.3 °C 41.2 °F /  5.1 °C 29.8in /  1008.1hPa NE 4mph /  6.4km/h 4mph /  6.4km/h 37% 0in /  0.0mm 687 W/m2
15:29 69.3 °F /  20.7 °C 39.7 °F /  4.3 °C 29.8in /  1008.1hPa South 4mph /  6.4km/h 4mph /  6.4km/h 34% 0in /  0.0mm 684 W/m2
15:34 69.4 °F /  20.8 °C 40.6 °F /  4.8 °C 29.8in /  1008.1hPa North 0.9mph /  1.4km/h 7mph /  11.3km/h 35% 0in /  0.0mm 679 W/m2
15:39 69.6 °F /  20.9 °C 41.5 °F /  5.3 °C 29.8in /  1008.1hPa East 2mph /  3.2km/h 4mph /  6.4km/h 36% 0in /  0.0mm 671 W/m2
15:44 69.6 °F /  20.9 °C 41.5 °F /  5.3 °C 29.8in /  1008.1hPa ESE 2mph /  3.2km/h 7mph /  11.3km/h 36% 0in /  0.0mm 664 W/m2
15:50 69.8 °F /  21 °C 40.1 °F /  4.5 °C 29.8in /  1007.8hPa SW 2mph /  3.2km/h 4mph /  6.4km/h 34% 0in /  0.0mm 664 W/m2
15:55 69.8 °F /  21 °C 40.1 °F /  4.5 °C 29.8in /  1007.8hPa NNE 0.9mph /  1.4km/h 1mph /  1.6km/h 34% 0in /  0.0mm 645 W/m2
16:00 70.2 °F /  21.2 °C 41.2 °F /  5.1 °C 29.8in /  1007.8hPa SSW 0.9mph /  1.4km/h 2mph /  3.2km/h 35% 0in /  0.0mm 636 W/m2
16:05 70.5 °F /  21.4 °C 42.3 °F /  5.7 °C 29.8in /  1007.8hPa Calm   3mph /  4.8km/h 36% 0in /  0.0mm 629 W/m2
16:10 70.7 °F /  21.5 °C 40.1 °F /  4.5 °C 29.8in /  1007.8hPa WSW 2mph /  3.2km/h 8mph /  12.9km/h 33% 0in /  0.0mm 622 W/m2
16:15 70.3 °F /  21.3 °C 39 °F /  3.9 °C 29.8in /  1007.8hPa NNW 0.9mph /  1.4km/h 2mph /  3.2km/h 32% 0in /  0.0mm 610 W/m2
16:20 70.2 °F /  21.2 °C 39.7 °F /  4.3 °C 29.8in /  1007.8hPa Calm   2mph /  3.2km/h 33% 0in /  0.0mm 601 W/m2
16:25 70.5 °F /  21.4 °C 39.2 °F /  4 °C 29.8in /  1007.8hPa ESE 0.9mph /  1.4km/h 2mph /  3.2km/h 32% 0in /  0.0mm 592 W/m2
16:30 71.1 °F /  21.7 °C 39.7 °F /  4.3 °C 29.8in /  1007.8hPa Calm   4mph /  6.4km/h 32% 0in /  0.0mm 582 W/m2
16:35 71.1 °F /  21.7 °C 40.5 °F /  4.7 °C 29.8in /  1007.8hPa NW 2.9mph /  4.7km/h 3mph /  4.8km/h 33% 0in /  0.0mm 571 W/m2
16:40 71.2 °F /  21.8 °C 39.9 °F /  4.4 °C 29.8in /  1007.8hPa North 4mph /  6.4km/h 4mph /  6.4km/h 32% 0in /  0.0mm 561 W/m2
16:45 71.1 °F /  21.7 °C 38.1 °F /  3.4 °C 29.8in /  1007.5hPa NNW 2mph /  3.2km/h 3mph /  4.8km/h 30% 0in /  0.0mm 554 W/m2
16:50 70.9 °F /  21.6 °C 38.7 °F /  3.7 °C 29.8in /  1007.5hPa ENE 2mph /  3.2km/h 4mph /  6.4km/h 31% 0in /  0.0mm 536 W/m2
16:55 70.9 °F /  21.6 °C 38.7 °F /  3.7 °C 29.8in /  1007.5hPa ENE 4mph /  6.4km/h 5mph /  8km/h 31% 0in /  0.0mm 526 W/m2
17:00 70.7 °F /  21.5 °C 38.7 °F /  3.7 °C 29.8in /  1007.5hPa ENE 0.9mph /  1.4km/h 2mph /  3.2km/h 31% 0in /  0.0mm 513 W/m2
17:05 70.7 °F /  21.5 °C 40.1 °F /  4.5 °C 29.8in /  1007.5hPa Calm   3mph /  4.8km/h 33% 0in /  0.0mm 504 W/m2
17:10 71.4 °F /  21.9 °C 41.5 °F /  5.3 °C 29.8in /  1007.5hPa NNE 2mph /  3.2km/h 3mph /  4.8km/h 34% 0in /  0.0mm 490 W/m2
17:15 72 °F /  22.2 °C 40.5 °F /  4.7 °C 29.8in /  1007.5hPa East 2.9mph /  4.7km/h 5mph /  8km/h 32% 0in /  0.0mm 483 W/m2
17:20 72.3 °F /  22.4 °C 41.5 °F /  5.3 °C 29.8in /  1007.5hPa WNW 2mph /  3.2km/h 2mph /  3.2km/h 33% 0in /  0.0mm 473 W/m2
17:25 72.9 °F /  22.7 °C 40.5 °F /  4.7 °C 29.8in /  1007.5hPa NNW 0.9mph /  1.4km/h 5mph /  8km/h 31% 0in /  0.0mm 457 W/m2
17:30 72.9 °F /  22.7 °C 40.5 °F /  4.7 °C 29.8in /  1007.5hPa West 0.9mph /  1.4km/h 2mph /  3.2km/h 31% 0in /  0.0mm 443 W/m2
17:35 72.7 °F /  22.6 °C 40.3 °F /  4.6 °C 29.8in /  1007.5hPa NW 2mph /  3.2km/h 5mph /  8km/h 31% 0in /  0.0mm 429 W/m2
17:40 72.5 °F /  22.5 °C 39.4 °F /  4.1 °C 29.8in /  1007.5hPa WSW 2mph /  3.2km/h 6mph /  9.7km/h 30% 0in /  0.0mm 417 W/m2
17:45 72.1 °F /  22.3 °C 39 °F /  3.9 °C 29.8in /  1007.5hPa NW 2mph /  3.2km/h 3mph /  4.8km/h 30% 0in /  0.0mm 404 W/m2
17:50 72 °F /  22.2 °C 38.8 °F /  3.8 °C 29.8in /  1007.5hPa WNW 4mph /  6.4km/h 6mph /  9.7km/h 30% 0in /  0.0mm 390 W/m2
17:55 71.6 °F /  22 °C 39.4 °F /  4.1 °C 29.8in /  1007.5hPa NNW 2mph /  3.2km/h 2mph /  3.2km/h 31% 0in /  0.0mm 380 W/m2
18:00 72 °F /  22.2 °C 38.8 °F /  3.8 °C 29.8in /  1007.5hPa NW 0.9mph /  1.4km/h 5mph /  8km/h 30% 0in /  0.0mm 364 W/m2
18:05 72 °F /  22.2 °C 38.8 °F /  3.8 °C 29.8in /  1007.5hPa WNW 2mph /  3.2km/h 3mph /  4.8km/h 30% 0in /  0.0mm 353 W/m2
18:10 72 °F /  22.2 °C 38.8 °F /  3.8 °C 29.8in /  1007.5hPa NW 0.9mph /  1.4km/h 2mph /  3.2km/h 30% 0in /  0.0mm 339 W/m2
18:15 72 °F /  22.2 °C 38.8 °F /  3.8 °C 29.8in /  1007.5hPa NW 2mph /  3.2km/h 4mph /  6.4km/h 30% 0in /  0.0mm 327 W/m2
18:20 72 °F /  22.2 °C 38.8 °F /  3.8 °C 29.8in /  1007.5hPa West 2.9mph /  4.7km/h 4mph /  6.4km/h 30% 0in /  0.0mm 313 W/m2
18:25 71.4 °F /  21.9 °C 38.3 °F /  3.5 °C 29.8in /  1007.5hPa ENE 0.9mph /  1.4km/h 3mph /  4.8km/h 30% 0in /  0.0mm 302 W/m2
18:30 71.2 °F /  21.8 °C 39 °F /  3.9 °C 29.8in /  1007.5hPa Calm   2mph /  3.2km/h 31% 0in /  0.0mm 287 W/m2
18:35 71.6 °F /  22 °C 39.4 °F /  4.1 °C 29.8in /  1007.5hPa ESE 2mph /  3.2km/h 3mph /  4.8km/h 31% 0in /  0.0mm 274 W/m2
18:40 71.2 °F /  21.8 °C 39.9 °F /  4.4 °C 29.8in /  1007.5hPa NNW 0.9mph /  1.4km/h 3mph /  4.8km/h 32% 0in /  0.0mm 260 W/m2
18:45 71.2 °F /  21.8 °C 41.4 °F /  5.2 °C 29.8in /  1007.5hPa ENE 2mph /  3.2km/h 4mph /  6.4km/h 34% 0in /  0.0mm 246 W/m2
18:50 71.1 °F /  21.7 °C 40.5 °F /  4.7 °C 29.8in /  1007.5hPa SE 2mph /  3.2km/h 3mph /  4.8km/h 33% 0in /  0.0mm 234 W/m2
18:55 71.1 °F /  21.7 °C 42.1 °F /  5.6 °C 29.8in /  1007.5hPa South 0.9mph /  1.4km/h 2mph /  3.2km/h 35% 0in /  0.0mm 216 W/m2
19:00 70.9 °F /  21.6 °C 41.2 °F /  5.1 °C 29.8in /  1007.5hPa Calm   3mph /  4.8km/h 34% 0in /  0.0mm 202 W/m2
19:05 70.7 °F /  21.5 °C 41.7 °F /  5.4 °C 29.8in /  1007.5hPa Calm   1mph /  1.6km/h 35% 0in /  0.0mm 188 W/m2
19:10 70.3 °F /  21.3 °C 40.6 °F /  4.8 °C 29.8in /  1007.5hPa ESE 2mph /  3.2km/h 4mph /  6.4km/h 34% 0in /  0.0mm 171 W/m2
19:16 70.2 °F /  21.2 °C 41.9 °F /  5.5 °C 29.8in /  1007.5hPa NE 2.9mph /  4.7km/h 3mph /  4.8km/h 36% 0in /  0.0mm 155 W/m2
19:21 69.6 °F /  20.9 °C 41.5 °F /  5.3 °C 29.8in /  1007.5hPa East 0.9mph /  1.4km/h 4mph /  6.4km/h 36% 0in /  0.0mm 139 W/m2
19:26 69.6 °F /  20.9 °C 43.5 °F /  6.4 °C 29.8in /  1007.5hPa ENE 0.9mph /  1.4km/h 2mph /  3.2km/h 39% 0in /  0.0mm 125 W/m2
19:31 69.4 °F /  20.8 °C 45.3 °F /  7.4 °C 29.8in /  1007.5hPa East 0.9mph /  1.4km/h 3mph /  4.8km/h 42% 0in /  0.0mm 109 W/m2
19:36 69.1 °F /  20.6 °C 43.2 °F /  6.2 °C 29.8in /  1007.5hPa ESE 0.9mph /  1.4km/h 2mph /  3.2km/h 39% 0in /  0.0mm 98 W/m2
19:41 68.9 °F /  20.5 °C 45.5 °F /  7.5 °C 29.8in /  1007.5hPa ESE 0.9mph /  1.4km/h 1mph /  1.6km/h 43% 0in /  0.0mm 86 W/m2
19:46 68.5 °F /  20.3 °C 45.1 °F /  7.3 °C 29.8in /  1007.5hPa Calm     43% 0in /  0.0mm 72 W/m2
19:51 68.2 °F /  20.1 °C 45.5 °F /  7.5 °C 29.8in /  1007.5hPa Calm     44% 0in /  0.0mm 62 W/m2
19:56 67.8 °F /  19.9 °C 45.1 °F /  7.3 °C 29.8in /  1007.5hPa Calm     44% 0in /  0.0mm 54 W/m2
20:01 67.8 °F /  19.9 °C 44.4 °F /  6.9 °C 29.8in /  1007.5hPa Calm     43% 0in /  0.0mm 46 W/m2
20:06 67.6 °F /  19.8 °C 45 °F /  7.2 °C 29.8in /  1007.5hPa Calm   1mph /  1.6km/h 44% 0in /  0.0mm 26 W/m2
20:11 67.1 °F /  19.5 °C 44.4 °F /  6.9 °C 29.8in /  1007.5hPa Calm     44% 0in /  0.0mm 23 W/m2
20:16 66.2 °F /  19 °C 44.2 °F /  6.8 °C 29.8in /  1007.5hPa ESE 1mph /  1.6km/h 1mph /  1.6km/h 45% 0in /  0.0mm 21 W/m2
20:21 65.1 °F /  18.4 °C 43.9 °F /  6.6 °C 29.8in /  1007.5hPa ESE 0.9mph /  1.4km/h 1mph /  1.6km/h 46% 0in /  0.0mm 18 W/m2
20:26 64.4 °F /  18 °C 43.7 °F /  6.5 °C 29.8in /  1007.5hPa ESE 0.9mph /  1.4km/h 1mph /  1.6km/h 47% 0in /  0.0mm 14 W/m2
20:31 63.7 °F /  17.6 °C 42.4 °F /  5.8 °C 29.8in /  1007.5hPa ESE 0.9mph /  1.4km/h 1mph /  1.6km/h 46% 0in /  0.0mm 12 W/m2
20:36 63 °F /  17.2 °C 42.4 °F /  5.8 °C 29.8in /  1007.5hPa Calm   1mph /  1.6km/h 47% 0in /  0.0mm 9 W/m2
20:41 62.2 °F /  16.8 °C 42.8 °F /  6 °C 29.8in /  1007.5hPa ESE 0.9mph /  1.4km/h 2mph /  3.2km/h 49% 0in /  0.0mm 7 W/m2
20:46 61.7 °F /  16.5 °C 42.3 °F /  5.7 °C 29.8in /  1007.5hPa Calm   1mph /  1.6km/h 49% 0in /  0.0mm 5 W/m2
20:51 61.2 °F /  16.2 °C 42.4 °F /  5.8 °C 29.8in /  1007.5hPa ESE 0.9mph /  1.4km/h 1mph /  1.6km/h 50% 0in /  0.0mm 0 W/m2
20:56 60.4 °F /  15.8 °C 42.3 °F /  5.7 °C 29.8in /  1007.5hPa ESE 0.9mph /  1.4km/h 2mph /  3.2km/h 51% 0in /  0.0mm 0 W/m2
21:01 60.1 °F /  15.6 °C 41.9 °F /  5.5 °C 29.8in /  1007.5hPa ESE 0.9mph /  1.4km/h 1mph /  1.6km/h 51% 0in /  0.0mm 0 W/m2
21:06 59.5 °F /  15.3 °C 41.9 °F /  5.5 °C 29.8in /  1007.5hPa ESE 0.9mph /  1.4km/h 2mph /  3.2km/h 52% 0in /  0.0mm 0 W/m2
21:11 59.2 °F /  15.1 °C 42.1 °F /  5.6 °C 29.8in /  1007.5hPa ESE 0.9mph /  1.4km/h 2mph /  3.2km/h 53% 0in /  0.0mm 0 W/m2
21:16 58.6 °F /  14.8 °C 41.5 °F /  5.3 °C 29.8in /  1007.8hPa Calm     53% 0in /  0.0mm 0 W/m2
21:21 58.3 °F /  14.6 °C 41.7 °F /  5.4 °C 29.8in /  1007.8hPa Calm     54% 0in /  0.0mm 0 W/m2
21:26 57.7 °F /  14.3 °C 41.2 °F /  5.1 °C 29.8in /  1007.5hPa Calm     54% 0in /  0.0mm 0 W/m2
21:31 57.6 °F /  14.2 °C 41.5 °F /  5.3 °C 29.8in /  1007.8hPa Calm     55% 0in /  0.0mm 0 W/m2
21:36 57 °F /  13.9 °C 41.5 °F /  5.3 °C 29.8in /  1007.8hPa Calm     56% 0in /  0.0mm 0 W/m2
21:41 56.8 °F /  13.8 °C 41.7 °F /  5.4 °C 29.8in /  1007.8hPa Calm     57% 0in /  0.0mm 0 W/m2
21:46 56.5 °F /  13.6 °C 41.4 °F /  5.2 °C 29.8in /  1007.8hPa Calm     57% 0in /  0.0mm 0 W/m2
21:51 56.1 °F /  13.4 °C 41.5 °F /  5.3 °C 29.8in /  1007.8hPa Calm     58% 0in /  0.0mm 0 W/m2
21:56 55.8 °F /  13.2 °C 41.2 °F /  5.1 °C 29.8in /  1007.8hPa Calm     58% 0in /  0.0mm 0 W/m2
22:01 55.6 °F /  13.1 °C 41.5 °F /  5.3 °C 29.8in /  1007.8hPa Calm     59% 0in /  0.0mm 0 W/m2
22:06 55.2 °F /  12.9 °C 41.2 °F /  5.1 °C 29.8in /  1008.1hPa Calm     59% 0in /  0.0mm 0 W/m2
22:11 55 °F /  12.8 °C 41.4 °F /  5.2 °C 29.8in /  1008.1hPa Calm     60% 0in /  0.0mm 0 W/m2
22:16 54.7 °F /  12.6 °C 41 °F /  5 °C 29.8in /  1008.1hPa Calm     60% 0in /  0.0mm 0 W/m2
22:21 54.3 °F /  12.4 °C 41.2 °F /  5.1 °C 29.8in /  1008.1hPa Calm     61% 0in /  0.0mm 0 W/m2
22:26 54.1 °F /  12.3 °C 41 °F /  5 °C 29.8in /  1008.1hPa Calm     61% 0in /  0.0mm 0 W/m2
22:31 54 °F /  12.2 °C 40.8 °F /  4.9 °C 29.8in /  1008.1hPa Calm     61% 0in /  0.0mm 0 W/m2
22:36 54 °F /  12.2 °C 40.8 °F /  4.9 °C 29.8in /  1008.1hPa Calm     61% 0in /  0.0mm 0 W/m2
22:41 53.8 °F /  12.1 °C 41 °F /  5 °C 29.8in /  1008.1hPa Calm   1mph /  1.6km/h 62% 0in /  0.0mm 0 W/m2
22:46 53.6 °F /  12 °C 40.8 °F /  4.9 °C 29.8in /  1008.1hPa Calm     62% 0in /  0.0mm 0 W/m2
22:51 53.4 °F /  11.9 °C 40.6 °F /  4.8 °C 29.8in /  1008.1hPa WNW 2mph /  3.2km/h 4mph /  6.4km/h 62% 0in /  0.0mm 0 W/m2
22:56 53.8 °F /  12.1 °C 40.6 °F /  4.8 °C 29.8in /  1008.1hPa West 0.9mph /  1.4km/h 1mph /  1.6km/h 61% 0in /  0.0mm 0 W/m2
23:01 54.1 °F /  12.3 °C 40.6 °F /  4.8 °C 29.8in /  1008.5hPa West 0.9mph /  1.4km/h 4mph /  6.4km/h 60% 0in /  0.0mm 0 W/m2
23:06 54.7 °F /  12.6 °C 41 °F /  5 °C 29.8in /  1008.1hPa Calm   1mph /  1.6km/h 60% 0in /  0.0mm 0 W/m2
23:11 54.9 °F /  12.7 °C 41.2 °F /  5.1 °C 29.8in /  1008.1hPa SW 0.9mph /  1.4km/h 1mph /  1.6km/h 60% 0in /  0.0mm 0 W/m2
23:16 54.9 °F /  12.7 °C 41.2 °F /  5.1 °C 29.8in /  1008.1hPa Calm   1mph /  1.6km/h 60% 0in /  0.0mm 0 W/m2
23:21 54.9 °F /  12.7 °C 41.2 °F /  5.1 °C 29.8in /  1008.5hPa Calm   2mph /  3.2km/h 60% 0in /  0.0mm 0 W/m2
23:26 54.7 °F /  12.6 °C 41.5 °F /  5.3 °C 29.8in /  1008.5hPa WNW 2mph /  3.2km/h 3mph /  4.8km/h 61% 0in /  0.0mm 0 W/m2
23:31 54.3 °F /  12.4 °C 41.2 °F /  5.1 °C 29.8in /  1008.5hPa WNW 2mph /  3.2km/h 2mph /  3.2km/h 61% 0in /  0.0mm 0 W/m2
23:36 54.1 °F /  12.3 °C 41.4 °F /  5.2 °C 29.8in /  1008.5hPa Calm   3mph /  4.8km/h 62% 0in /  0.0mm 0 W/m2
23:41 53.8 °F /  12.1 °C 41 °F /  5 °C 29.8in /  1008.5hPa WNW 0.9mph /  1.4km/h 1mph /  1.6km/h 62% 0in /  0.0mm 0 W/m2
23:47 53.6 °F /  12 °C 41.4 °F /  5.2 °C 29.8in /  1008.5hPa Calm   2mph /  3.2km/h 63% 0in /  0.0mm 0 W/m2
23:52 53.2 °F /  11.8 °C 41.4 °F /  5.2 °C 29.8in /  1008.5hPa Calm     64% 0in /  0.0mm 0 W/m2
23:57 53.1 °F /  11.7 °C 41.2 °F /  5.1 °C 29.8in /  1008.5hPa Calm     64% 0in /  0.0mm 0 W/m2
Juneau County Weather
Compliments of Weather Underground - 2 mb